createdAt,value
2017-03-21T00:00:30.176Z,0
2017-03-21T00:01:10.831Z,0
2017-03-21T00:01:51.498Z,0
2017-03-21T00:02:33.178Z,0
2017-03-21T00:03:13.842Z,0
2017-03-21T00:03:54.472Z,0
2017-03-21T00:04:35.119Z,0
2017-03-21T00:05:15.757Z,0
2017-03-21T00:05:56.422Z,0
2017-03-21T00:06:37.097Z,0
2017-03-21T00:07:17.729Z,0
2017-03-21T00:07:59.302Z,0
2017-03-21T00:08:40.059Z,0
2017-03-21T00:09:21.229Z,0
2017-03-21T00:10:01.923Z,0
2017-03-21T00:10:43.554Z,0
2017-03-21T00:11:24.205Z,0
2017-03-21T00:12:04.861Z,0
2017-03-21T00:12:45.512Z,0
2017-03-21T00:13:26.183Z,0
2017-03-21T00:14:06.816Z,0
2017-03-21T00:14:47.470Z,0
2017-03-21T00:15:28.123Z,0
2017-03-21T00:16:08.778Z,0
2017-03-21T00:16:49.427Z,0
2017-03-21T00:17:30.081Z,0
2017-03-21T00:18:10.635Z,0
2017-03-21T00:18:51.250Z,0
2017-03-21T00:19:31.859Z,0
2017-03-21T00:20:13.514Z,0
2017-03-21T00:20:54.103Z,0
2017-03-21T00:21:34.773Z,0
2017-03-21T00:22:15.364Z,0
2017-03-21T00:22:56.024Z,0
2017-03-21T00:23:36.719Z,0
2017-03-21T00:24:17.343Z,0
2017-03-21T00:24:57.979Z,0
2017-03-21T00:25:38.633Z,0
2017-03-21T00:26:19.285Z,0
2017-03-21T00:26:59.938Z,0
2017-03-21T00:27:40.591Z,0
2017-03-21T00:28:21.269Z,0
2017-03-21T00:29:02.919Z,0
2017-03-21T00:29:43.598Z,0
2017-03-21T00:30:24.226Z,0
2017-03-21T00:31:04.891Z,0
2017-03-21T00:31:45.534Z,0
2017-03-21T00:32:26.278Z,0
2017-03-21T00:33:06.972Z,0
2017-03-21T00:33:47.525Z,0
2017-03-21T00:34:28.621Z,0
2017-03-21T00:35:09.208Z,0
2017-03-21T00:35:49.858Z,0
2017-03-21T00:36:30.408Z,0
2017-03-21T00:37:12.092Z,0
2017-03-21T00:37:52.740Z,0
2017-03-21T00:38:33.402Z,0
2017-03-21T00:39:13.960Z,0
2017-03-21T00:39:54.664Z,0
2017-03-21T00:40:35.246Z,0
2017-03-21T00:41:15.902Z,0
2017-03-21T00:41:56.463Z,0
2017-03-21T00:42:37.051Z,0
2017-03-21T00:43:17.654Z,0
2017-03-21T00:43:58.307Z,0
2017-03-21T00:44:38.858Z,0
2017-03-21T00:45:19.491Z,0
2017-03-21T00:46:00.189Z,0
2017-03-21T00:46:40.822Z,0
2017-03-21T00:47:21.393Z,0
2017-03-21T00:48:02.147Z,0
2017-03-21T00:48:42.775Z,0
2017-03-21T00:49:23.342Z,0
2017-03-21T00:50:03.914Z,0
2017-03-21T00:50:44.620Z,0
2017-03-21T00:51:25.309Z,0
2017-03-21T00:52:05.938Z,0
2017-03-21T00:52:46.531Z,0
2017-03-21T00:53:27.226Z,0
2017-03-21T00:54:08.073Z,0
2017-03-21T00:54:48.639Z,0
2017-03-21T00:55:29.319Z,0
2017-03-21T00:56:09.971Z,0
2017-03-21T00:56:50.553Z,0
2017-03-21T00:57:31.184Z,0
2017-03-21T00:58:12.874Z,0
2017-03-21T00:58:53.526Z,0
2017-03-21T00:59:34.160Z,0
2017-03-21T01:00:19.938Z,0
2017-03-21T01:01:03.012Z,0
2017-03-21T01:01:47.818Z,0
2017-03-21T01:02:31.622Z,0
2017-03-21T01:03:14.242Z,0
2017-03-21T01:03:57.951Z,0
2017-03-21T01:04:39.520Z,0
2017-03-21T01:05:20.162Z,0
2017-03-21T01:06:00.832Z,0
2017-03-21T01:06:41.476Z,0
2017-03-21T01:07:22.121Z,0
2017-03-21T01:08:02.775Z,0
2017-03-21T01:08:43.426Z,0
2017-03-21T01:09:24.073Z,0
2017-03-21T01:10:04.726Z,0
2017-03-21T01:10:45.309Z,0
2017-03-21T01:11:25.934Z,0
2017-03-21T01:12:06.592Z,0
2017-03-21T01:12:47.254Z,0
2017-03-21T01:13:27.903Z,0
2017-03-21T01:14:08.552Z,0
2017-03-21T01:14:49.203Z,0
2017-03-21T01:15:29.861Z,0
2017-03-21T01:16:10.506Z,0
2017-03-21T01:16:51.191Z,0
2017-03-21T01:17:31.816Z,0
2017-03-21T01:18:12.496Z,0
2017-03-21T01:18:53.121Z,0
2017-03-21T01:19:33.779Z,0
2017-03-21T01:20:14.425Z,0
2017-03-21T01:20:55.095Z,0
2017-03-21T01:21:35.731Z,0
2017-03-21T01:22:16.382Z,0
2017-03-21T01:22:57.048Z,0
2017-03-21T01:23:37.621Z,0
2017-03-21T01:24:19.275Z,0
2017-03-21T01:24:59.914Z,0
2017-03-21T01:25:40.570Z,0
2017-03-21T01:26:21.152Z,0
2017-03-21T01:27:01.826Z,0
2017-03-21T01:27:42.423Z,0
2017-03-21T01:28:23.080Z,0
2017-03-21T01:29:03.744Z,0
2017-03-21T01:29:44.407Z,0
2017-03-21T01:30:25.037Z,0
2017-03-21T01:31:05.691Z,0
2017-03-21T01:31:46.340Z,0
2017-03-21T01:32:26.999Z,0
2017-03-21T01:33:07.651Z,0
2017-03-21T01:33:48.299Z,0
2017-03-21T01:34:28.955Z,0
2017-03-21T01:35:09.607Z,0
2017-03-21T01:35:50.262Z,0
2017-03-21T01:36:30.920Z,0
2017-03-21T01:37:11.639Z,0
2017-03-21T01:37:52.249Z,0
2017-03-21T01:38:32.791Z,0
2017-03-21T01:39:13.423Z,0
2017-03-21T01:39:54.081Z,0
2017-03-21T01:40:34.621Z,0
2017-03-21T01:41:15.275Z,0
2017-03-21T01:41:55.936Z,0
2017-03-21T01:42:36.510Z,0
2017-03-21T01:43:17.163Z,0
2017-03-21T01:43:57.794Z,0
2017-03-21T01:44:38.362Z,0
2017-03-21T01:45:18.940Z,0
2017-03-21T01:45:59.541Z,0
2017-03-21T01:46:40.204Z,0
2017-03-21T01:47:20.775Z,0
2017-03-21T01:48:01.485Z,0
2017-03-21T01:48:42.141Z,0
2017-03-21T01:49:22.813Z,0
2017-03-21T01:50:03.403Z,0
2017-03-21T01:50:44.108Z,0
2017-03-21T01:51:24.785Z,0
2017-03-21T01:52:05.423Z,0
2017-03-21T01:52:46.009Z,0
2017-03-21T01:53:26.723Z,0
2017-03-21T01:54:07.394Z,0
2017-03-21T01:54:48.057Z,0
2017-03-21T01:55:28.688Z,0
2017-03-21T01:56:09.389Z,0
2017-03-21T01:56:50.405Z,0
2017-03-21T01:57:31.061Z,0
2017-03-21T01:58:11.757Z,0
2017-03-21T01:58:52.373Z,0
2017-03-21T01:59:33.021Z,0
2017-03-21T02:00:13.682Z,0
2017-03-21T02:00:54.330Z,0
2017-03-21T02:01:34.975Z,0
2017-03-21T02:02:16.672Z,0
2017-03-21T02:02:57.309Z,0
2017-03-21T02:03:37.969Z,0
2017-03-21T02:04:18.614Z,0
2017-03-21T02:04:59.282Z,0
2017-03-21T02:05:39.916Z,0
2017-03-21T02:06:21.595Z,0
2017-03-21T02:07:02.299Z,0
2017-03-21T02:07:42.898Z,0
2017-03-21T02:08:23.550Z,0
2017-03-21T02:09:04.215Z,0
2017-03-21T02:09:44.856Z,0
2017-03-21T02:10:25.552Z,0
2017-03-21T02:11:06.179Z,0
2017-03-21T02:11:46.818Z,0
2017-03-21T02:12:27.470Z,0
2017-03-21T02:13:08.114Z,0
2017-03-21T02:13:48.777Z,0
2017-03-21T02:14:29.426Z,0
2017-03-21T02:15:10.079Z,0
2017-03-21T02:15:50.671Z,0
2017-03-21T02:16:31.391Z,0
2017-03-21T02:17:13.072Z,0
2017-03-21T02:17:54.759Z,0
2017-03-21T02:18:35.405Z,0
2017-03-21T02:19:17.156Z,0
2017-03-21T02:19:57.740Z,0
2017-03-21T02:20:39.396Z,0
2017-03-21T02:21:20.053Z,0
2017-03-21T02:22:00.725Z,0
2017-03-21T02:22:41.356Z,0
2017-03-21T02:23:22.014Z,0
2017-03-21T02:24:02.598Z,0
2017-03-21T02:24:43.271Z,0
2017-03-21T02:25:23.883Z,0
2017-03-21T02:26:05.570Z,0
2017-03-21T02:26:46.138Z,0
2017-03-21T02:27:26.836Z,0
2017-03-21T02:28:07.535Z,0
2017-03-21T02:28:48.155Z,0
2017-03-21T02:29:28.842Z,0
2017-03-21T02:30:09.488Z,0
2017-03-21T02:30:50.125Z,0
2017-03-21T02:31:30.717Z,0
2017-03-21T02:32:11.370Z,0
2017-03-21T02:32:52.072Z,0
2017-03-21T02:33:32.666Z,0
2017-03-21T02:34:13.317Z,0
2017-03-21T02:34:53.960Z,0
2017-03-21T02:35:34.502Z,0
2017-03-21T02:36:15.136Z,0
2017-03-21T02:36:56.199Z,0
2017-03-21T02:37:36.755Z,0
2017-03-21T02:38:17.412Z,0
2017-03-21T02:38:58.061Z,0
2017-03-21T02:39:38.625Z,0
2017-03-21T02:40:19.298Z,0
2017-03-21T02:40:59.917Z,0
2017-03-21T02:41:40.568Z,0
2017-03-21T02:42:21.157Z,0
2017-03-21T02:43:01.832Z,0
2017-03-21T02:43:42.446Z,0
2017-03-21T02:44:23.073Z,0
2017-03-21T02:45:03.722Z,0
2017-03-21T02:45:44.767Z,0
2017-03-21T02:46:25.452Z,0
2017-03-21T02:47:06.102Z,0
2017-03-21T02:47:47.168Z,0
2017-03-21T02:48:27.835Z,0
2017-03-21T02:49:08.400Z,0
2017-03-21T02:49:49.093Z,0
2017-03-21T02:50:29.683Z,0
2017-03-21T02:51:10.339Z,0
2017-03-21T02:51:50.909Z,0
2017-03-21T02:52:31.473Z,0
2017-03-21T02:53:12.122Z,0
2017-03-21T02:53:52.751Z,0
2017-03-21T02:54:33.768Z,0
2017-03-21T02:55:14.442Z,0
2017-03-21T02:55:55.110Z,0
2017-03-21T02:56:35.778Z,0
2017-03-21T02:57:16.419Z,0
2017-03-21T02:57:57.082Z,0
2017-03-21T02:58:37.713Z,0
2017-03-21T02:59:18.363Z,0
2017-03-21T02:59:58.943Z,0
2017-03-21T03:00:39.585Z,0
2017-03-21T03:01:20.228Z,0
2017-03-21T03:02:00.814Z,0
2017-03-21T03:02:41.415Z,0
2017-03-21T03:03:21.978Z,0
2017-03-21T03:04:02.656Z,0
2017-03-21T03:04:43.279Z,0
2017-03-21T03:05:23.848Z,0
2017-03-21T03:06:04.484Z,0
2017-03-21T03:06:46.177Z,0
2017-03-21T03:07:26.734Z,0
2017-03-21T03:08:07.444Z,0
2017-03-21T03:08:48.022Z,0
2017-03-21T03:09:28.600Z,0
2017-03-21T03:10:09.225Z,0
2017-03-21T03:10:49.881Z,0
2017-03-21T03:11:30.447Z,0
2017-03-21T03:12:11.104Z,0
2017-03-21T03:12:51.936Z,0
2017-03-21T03:13:32.723Z,0
2017-03-21T03:14:13.408Z,0
2017-03-21T03:14:54.094Z,0
2017-03-21T03:15:34.655Z,0
2017-03-21T03:16:15.297Z,0
2017-03-21T03:16:55.978Z,0
2017-03-21T03:17:36.955Z,0
2017-03-21T03:18:17.548Z,0
2017-03-21T03:18:58.180Z,0
2017-03-21T03:19:38.778Z,0
2017-03-21T03:20:19.508Z,0
2017-03-21T03:21:00.205Z,0
2017-03-21T03:21:40.784Z,0
2017-03-21T03:22:21.370Z,0
2017-03-21T03:23:02.042Z,0
2017-03-21T03:23:42.609Z,0
2017-03-21T03:24:24.253Z,0
2017-03-21T03:25:05.899Z,0
2017-03-21T03:25:46.636Z,0
2017-03-21T03:26:27.325Z,0
2017-03-21T03:27:08.995Z,0
2017-03-21T03:27:50.659Z,0
2017-03-21T03:28:32.402Z,0
2017-03-21T03:29:12.983Z,0
2017-03-21T03:29:53.667Z,0
2017-03-21T03:30:34.293Z,0
2017-03-21T03:31:14.940Z,0
2017-03-21T03:31:55.601Z,0
2017-03-21T03:32:36.293Z,0
2017-03-21T03:33:16.953Z,0
2017-03-21T03:33:57.580Z,0
2017-03-21T03:34:38.313Z,0
2017-03-21T03:35:18.883Z,0
2017-03-21T03:35:59.596Z,0
2017-03-21T03:36:40.209Z,0
2017-03-21T03:37:20.870Z,0
2017-03-21T03:38:01.625Z,0
2017-03-21T03:38:42.251Z,0
2017-03-21T03:39:22.819Z,0
2017-03-21T03:40:03.487Z,0
2017-03-21T03:40:44.069Z,0
2017-03-21T03:41:24.791Z,0
2017-03-21T03:42:05.437Z,0
2017-03-21T03:42:46.095Z,0
2017-03-21T03:43:26.694Z,0
2017-03-21T03:44:07.276Z,0
2017-03-21T03:44:47.947Z,0
2017-03-21T03:45:28.518Z,0
2017-03-21T03:46:09.171Z,0
2017-03-21T03:46:49.797Z,0
2017-03-21T03:47:30.379Z,0
2017-03-21T03:48:11.032Z,0
2017-03-21T03:48:52.698Z,0
2017-03-21T03:49:33.263Z,0
2017-03-21T03:50:13.939Z,0
2017-03-21T03:50:54.551Z,0
2017-03-21T03:51:35.203Z,0
2017-03-21T03:52:15.773Z,0
2017-03-21T03:52:56.462Z,0
2017-03-21T03:53:37.053Z,0
2017-03-21T03:54:18.735Z,0
2017-03-21T03:54:59.454Z,0
2017-03-21T03:55:40.039Z,0
2017-03-21T03:56:20.687Z,0
2017-03-21T03:57:01.343Z,0
2017-03-21T03:57:41.995Z,0
2017-03-21T03:58:22.642Z,0
2017-03-21T03:59:04.327Z,0
2017-03-21T03:59:44.977Z,0
2017-03-21T04:00:25.652Z,0
2017-03-21T04:01:06.281Z,0
2017-03-21T04:01:46.930Z,0
2017-03-21T04:02:27.590Z,0
2017-03-21T04:03:08.245Z,0
2017-03-21T04:03:48.903Z,0
2017-03-21T04:04:30.365Z,0
2017-03-21T04:05:11.015Z,0
2017-03-21T04:05:51.682Z,0
2017-03-21T04:06:32.440Z,0
2017-03-21T04:07:13.099Z,0
2017-03-21T04:07:53.744Z,0
2017-03-21T04:08:34.395Z,0
2017-03-21T04:09:15.041Z,0
2017-03-21T04:09:55.710Z,0
2017-03-21T04:10:36.352Z,0
2017-03-21T04:11:18.038Z,0
2017-03-21T04:11:58.677Z,0
2017-03-21T04:12:40.363Z,0
2017-03-21T04:13:21.016Z,0
2017-03-21T04:14:01.614Z,0
2017-03-21T04:14:42.196Z,0
2017-03-21T04:15:22.888Z,0
2017-03-21T04:16:03.479Z,0
2017-03-21T04:16:44.079Z,0
2017-03-21T04:17:24.804Z,0
2017-03-21T04:18:05.370Z,0
2017-03-21T04:18:46.044Z,0
2017-03-21T04:19:26.701Z,0
2017-03-21T04:20:07.346Z,0
2017-03-21T04:20:47.978Z,0
2017-03-21T04:21:29.669Z,0
2017-03-21T04:22:10.338Z,0
2017-03-21T04:22:52.392Z,0
2017-03-21T04:23:33.054Z,0
2017-03-21T04:24:13.708Z,0
2017-03-21T04:24:54.273Z,0
2017-03-21T04:25:34.865Z,0
2017-03-21T04:26:16.478Z,0
2017-03-21T04:26:57.140Z,0
2017-03-21T04:27:37.725Z,0
2017-03-21T04:28:18.705Z,0
2017-03-21T04:29:00.324Z,0
2017-03-21T04:29:42.004Z,0
2017-03-21T04:30:22.667Z,0
2017-03-21T04:31:03.317Z,0
2017-03-21T04:31:43.959Z,0
2017-03-21T04:32:24.632Z,0
2017-03-21T04:33:05.291Z,0
2017-03-21T04:33:45.913Z,0
2017-03-21T04:34:26.573Z,0
2017-03-21T04:35:07.243Z,0
2017-03-21T04:35:47.876Z,0
2017-03-21T04:36:29.564Z,0
2017-03-21T04:37:11.247Z,0
2017-03-21T04:37:51.875Z,0
2017-03-21T04:38:32.539Z,0
2017-03-21T04:39:13.128Z,0
2017-03-21T04:39:53.806Z,0
2017-03-21T04:40:34.495Z,0
2017-03-21T04:41:15.165Z,0
2017-03-21T04:41:55.739Z,0
2017-03-21T04:42:37.331Z,0
2017-03-21T04:43:17.928Z,0
2017-03-21T04:43:58.584Z,0
2017-03-21T04:44:39.154Z,0
2017-03-21T04:45:19.755Z,0
2017-03-21T04:46:00.481Z,0
2017-03-21T04:46:41.090Z,0
2017-03-21T04:47:21.665Z,0
2017-03-21T04:48:03.318Z,0
2017-03-21T04:48:43.977Z,0
2017-03-21T04:49:24.624Z,0
2017-03-21T04:50:05.217Z,0
2017-03-21T04:50:45.889Z,0
2017-03-21T04:51:26.479Z,0
2017-03-21T04:52:07.163Z,0
2017-03-21T04:52:47.719Z,0
2017-03-21T04:53:28.452Z,0
2017-03-21T04:54:09.488Z,0
2017-03-21T04:54:50.162Z,0
2017-03-21T04:55:30.820Z,0
2017-03-21T04:56:11.476Z,0
2017-03-21T04:56:52.121Z,0
2017-03-21T04:57:32.860Z,0
2017-03-21T04:58:13.539Z,0
2017-03-21T04:58:54.181Z,0
2017-03-21T04:59:34.843Z,0
2017-03-21T05:00:16.513Z,0
2017-03-21T05:00:57.156Z,0
2017-03-21T05:01:37.817Z,0
2017-03-21T05:02:19.502Z,0
2017-03-21T05:03:00.135Z,4
2017-03-21T05:03:40.820Z,4
2017-03-21T05:04:21.443Z,4
2017-03-21T05:05:02.098Z,4
2017-03-21T05:05:42.788Z,4
2017-03-21T05:06:23.415Z,4
2017-03-21T05:07:04.103Z,4
2017-03-21T05:07:44.715Z,8
2017-03-21T05:08:25.389Z,4
2017-03-21T05:09:05.950Z,8
2017-03-21T05:09:46.566Z,8
2017-03-21T05:10:27.225Z,8
2017-03-21T05:11:07.804Z,12
2017-03-21T05:11:48.380Z,12
2017-03-21T05:12:28.962Z,12
2017-03-21T05:13:10.568Z,16
2017-03-21T05:13:51.160Z,16
2017-03-21T05:14:31.811Z,20
2017-03-21T05:15:12.470Z,16
2017-03-21T05:15:53.138Z,20
2017-03-21T05:16:33.789Z,20
2017-03-21T05:17:14.418Z,24
2017-03-21T05:17:56.088Z,28
2017-03-21T05:18:37.681Z,28
2017-03-21T05:19:18.333Z,32
2017-03-21T05:19:58.974Z,36
2017-03-21T05:20:39.675Z,40
2017-03-21T05:21:20.276Z,44
2017-03-21T05:22:01.856Z,52
2017-03-21T05:22:42.499Z,52
2017-03-21T05:23:23.215Z,56
2017-03-21T05:24:03.847Z,64
2017-03-21T05:24:44.521Z,64
2017-03-21T05:25:25.120Z,68
2017-03-21T05:26:05.775Z,72
2017-03-21T05:26:46.465Z,76
2017-03-21T05:27:27.103Z,76
2017-03-21T05:28:07.756Z,76
2017-03-21T05:28:50.320Z,76
2017-03-21T05:29:30.935Z,72
2017-03-21T05:30:11.589Z,68
2017-03-21T05:30:52.132Z,64
2017-03-21T05:31:32.732Z,60
2017-03-21T05:32:13.337Z,64
2017-03-21T05:32:53.994Z,68
2017-03-21T05:33:34.599Z,72
2017-03-21T05:34:15.241Z,76
2017-03-21T05:34:55.911Z,84
2017-03-21T05:35:36.566Z,92
2017-03-21T05:36:17.439Z,96
2017-03-21T05:36:58.059Z,100
2017-03-21T05:37:38.717Z,108
2017-03-21T05:38:19.394Z,116
2017-03-21T05:39:00.036Z,144
2017-03-21T05:39:40.622Z,184
2017-03-21T05:40:32.055Z,240
2017-03-21T05:41:12.694Z,280
2017-03-21T05:41:53.244Z,316
2017-03-21T05:42:33.839Z,352
2017-03-21T05:43:14.453Z,380
2017-03-21T05:43:55.012Z,412
2017-03-21T05:44:36.665Z,444
2017-03-21T05:45:17.316Z,472
2017-03-21T05:45:58.560Z,500
2017-03-21T05:46:39.129Z,532
2017-03-21T05:47:19.784Z,560
2017-03-21T05:48:00.445Z,592
2017-03-21T05:48:41.101Z,632
2017-03-21T05:49:21.771Z,672
2017-03-21T05:50:02.402Z,708
2017-03-21T05:50:43.057Z,740
2017-03-21T05:51:23.703Z,772
2017-03-21T05:52:04.369Z,804
2017-03-21T05:52:45.007Z,840
2017-03-21T05:53:25.680Z,872
2017-03-21T05:54:06.258Z,904
2017-03-21T05:54:46.846Z,936
2017-03-21T05:55:27.504Z,968
2017-03-21T05:56:08.169Z,1008
2017-03-21T05:56:48.824Z,1040
2017-03-21T05:57:29.379Z,1080
2017-03-21T05:58:10.005Z,1108
2017-03-21T05:58:50.579Z,1152
2017-03-21T05:59:32.153Z,1208
2017-03-21T06:00:12.832Z,1260
2017-03-21T06:00:53.460Z,1308
2017-03-21T06:01:34.133Z,1360
2017-03-21T06:02:15.816Z,1408
2017-03-21T06:02:56.480Z,1444
2017-03-21T06:03:38.137Z,1480
2017-03-21T06:04:18.711Z,1516
2017-03-21T06:04:59.320Z,1492
2017-03-21T06:05:40.102Z,1412
2017-03-21T06:06:20.677Z,1412
2017-03-21T06:07:01.316Z,1424
2017-03-21T06:07:41.933Z,1548
2017-03-21T06:08:22.522Z,1712
2017-03-21T06:09:03.139Z,1848
2017-03-21T06:09:43.818Z,1924
2017-03-21T06:10:24.446Z,1996
2017-03-21T06:11:06.118Z,2056
2017-03-21T06:11:46.783Z,2116
2017-03-21T06:12:28.448Z,2204
2017-03-21T06:13:09.132Z,2260
2017-03-21T06:13:49.789Z,2324
2017-03-21T06:14:30.410Z,2432
2017-03-21T06:15:11.009Z,2524
2017-03-21T06:15:53.082Z,2576
2017-03-21T06:16:33.703Z,2576
2017-03-21T06:17:14.352Z,2608
2017-03-21T06:17:54.926Z,2696
2017-03-21T06:18:35.540Z,2844
2017-03-21T06:19:16.231Z,2896
2017-03-21T06:19:58.806Z,2824
2017-03-21T06:20:39.461Z,2736
2017-03-21T06:21:20.198Z,2772
2017-03-21T06:22:00.890Z,2780
2017-03-21T06:22:41.521Z,2680
2017-03-21T06:23:22.179Z,2548
2017-03-21T06:24:02.841Z,2436
2017-03-21T06:24:45.427Z,2380
2017-03-21T06:25:26.007Z,2364
2017-03-21T06:26:06.631Z,2360
2017-03-21T06:26:47.282Z,2372
2017-03-21T06:27:27.834Z,2376
2017-03-21T06:28:08.399Z,2384
2017-03-21T06:28:49.047Z,2400
2017-03-21T06:29:29.621Z,2444
2017-03-21T06:30:10.327Z,2512
2017-03-21T06:30:51.006Z,2520
2017-03-21T06:31:31.656Z,2576
2017-03-21T06:32:12.248Z,2628
2017-03-21T06:32:52.924Z,2616
2017-03-21T06:33:33.521Z,2616
2017-03-21T06:34:14.159Z,2620
2017-03-21T06:34:54.710Z,2640
2017-03-21T06:35:35.368Z,2632
2017-03-21T06:36:16.017Z,2612
2017-03-21T06:36:56.601Z,2584
2017-03-21T06:37:42.852Z,2552
2017-03-21T06:38:23.966Z,2552
2017-03-21T06:39:04.667Z,2560
2017-03-21T06:39:46.348Z,2600
2017-03-21T06:40:26.973Z,2644
2017-03-21T06:41:13.384Z,2696
2017-03-21T06:41:56.088Z,2736
2017-03-21T06:42:36.671Z,2736
2017-03-21T06:43:18.332Z,2768
2017-03-21T06:43:58.973Z,2744
2017-03-21T06:44:39.622Z,2776
2017-03-21T06:45:20.276Z,2792
2017-03-21T06:46:00.925Z,2516
2017-03-21T06:46:41.584Z,2348
2017-03-21T06:47:22.247Z,2460
2017-03-21T06:48:02.896Z,2380
2017-03-21T06:48:43.536Z,2460
2017-03-21T06:49:24.191Z,2548
2017-03-21T06:50:05.774Z,2720
2017-03-21T06:50:46.415Z,2744
2017-03-21T06:51:27.082Z,2688
2017-03-21T06:52:07.752Z,2696
2017-03-21T06:52:49.402Z,2672
2017-03-21T06:53:30.077Z,2696
2017-03-21T06:54:10.724Z,2724
2017-03-21T06:54:52.398Z,2672
2017-03-21T06:55:33.063Z,2668
2017-03-21T06:56:13.691Z,2644
2017-03-21T06:56:55.376Z,2636
2017-03-21T06:57:36.032Z,2620
2017-03-21T06:58:16.683Z,2612
2017-03-21T06:58:58.364Z,2604
2017-03-21T06:59:38.925Z,2648
2017-03-21T07:00:19.542Z,2796
2017-03-21T07:01:00.221Z,2656
2017-03-21T07:01:40.776Z,2704
2017-03-21T07:02:21.414Z,2800
2017-03-21T07:03:02.077Z,2924
2017-03-21T07:03:42.649Z,2952
2017-03-21T07:04:23.287Z,2996
2017-03-21T07:05:03.916Z,3132
2017-03-21T07:05:44.483Z,3248
2017-03-21T07:06:25.147Z,3356
2017-03-21T07:07:05.786Z,3608
2017-03-21T07:07:46.435Z,3988
2017-03-21T07:08:27.010Z,4356
2017-03-21T07:09:09.639Z,4576
2017-03-21T07:09:50.233Z,5000
2017-03-21T07:10:30.910Z,5308
2017-03-21T07:11:11.507Z,5500
2017-03-21T07:11:52.044Z,5864
2017-03-21T07:12:32.646Z,6332
2017-03-21T07:13:13.301Z,6456
2017-03-21T07:13:53.873Z,6408
2017-03-21T07:14:35.497Z,6308
2017-03-21T07:15:16.176Z,6104
2017-03-21T07:15:58.783Z,5904
2017-03-21T07:16:39.344Z,5868
2017-03-21T07:17:20.966Z,6000
2017-03-21T07:18:01.675Z,6052
2017-03-21T07:18:47.123Z,6000
2017-03-21T07:19:27.700Z,5876
2017-03-21T07:20:09.320Z,5884
2017-03-21T07:20:50.004Z,5804
2017-03-21T07:21:30.562Z,5620
2017-03-21T07:22:11.171Z,5336
2017-03-21T07:23:03.428Z,5004
2017-03-21T07:23:44.080Z,4900
2017-03-21T07:24:24.653Z,4752
2017-03-21T07:25:26.174Z,4704
2017-03-21T07:26:06.831Z,4532
2017-03-21T07:26:47.508Z,4432
2017-03-21T07:45:46.024Z,4780
2017-03-21T07:46:26.577Z,4764
2017-03-21T07:47:07.184Z,4764
2017-03-21T07:47:48.804Z,4504
2017-03-21T07:48:29.465Z,4544
2017-03-21T07:49:10.582Z,4636
2017-03-21T07:49:51.650Z,4824
2017-03-21T07:50:32.352Z,4808
2017-03-21T07:51:12.990Z,4824
2017-03-21T07:51:54.045Z,4792
2017-03-21T07:52:34.669Z,4648
2017-03-21T07:53:15.273Z,4552
2017-03-21T07:53:55.905Z,4504
2017-03-21T07:54:36.472Z,4256
2017-03-21T07:55:17.123Z,4160
2017-03-21T07:55:57.767Z,4380
2017-03-21T07:56:38.352Z,4324
2017-03-21T07:57:19.012Z,4564
2017-03-21T07:57:59.620Z,4812
2017-03-21T07:58:40.238Z,4400
2017-03-21T07:59:21.846Z,4104
2017-03-21T08:00:02.505Z,4268
2017-03-21T08:00:43.152Z,4708
2017-03-21T08:01:23.806Z,4708
2017-03-21T08:02:04.476Z,5232
2017-03-21T08:02:45.113Z,5480
2017-03-21T08:03:25.768Z,5380
2017-03-21T08:04:06.418Z,4016
2017-03-21T08:04:46.983Z,4360
2017-03-21T08:05:27.569Z,5084
2017-03-21T08:06:08.176Z,5804
2017-03-21T08:06:48.829Z,5960
2017-03-21T08:07:29.392Z,5324
2017-03-21T08:08:09.995Z,4536
2017-03-21T08:08:50.586Z,4384
2017-03-21T08:09:31.235Z,5228
2017-03-21T08:10:11.809Z,5564
2017-03-21T08:10:52.451Z,5348
2017-03-21T08:11:33.095Z,5492
2017-03-21T08:12:13.653Z,5680
2017-03-21T08:12:54.280Z,5456
2017-03-21T08:13:34.945Z,5012
2017-03-21T08:14:15.499Z,5352
2017-03-21T08:14:57.170Z,5840
2017-03-21T08:15:37.840Z,5704
2017-03-21T08:16:18.487Z,6092
2017-03-21T08:16:59.133Z,6148
2017-03-21T08:17:40.922Z,5692
2017-03-21T08:18:21.567Z,5572
2017-03-21T08:19:02.222Z,6216
2017-03-21T08:19:42.876Z,6152
2017-03-21T08:20:24.469Z,5876
2017-03-21T08:21:05.220Z,5892
2017-03-21T08:21:45.868Z,6072
2017-03-21T08:22:26.511Z,6472
2017-03-21T08:23:07.164Z,5632
2017-03-21T08:23:47.982Z,4872
2017-03-21T08:24:30.231Z,4876
2017-03-21T08:25:11.883Z,4720
2017-03-21T08:25:52.536Z,5012
2017-03-21T08:26:33.352Z,5388
2017-03-21T08:27:15.790Z,5252
2017-03-21T08:27:56.543Z,4964
2017-03-21T08:28:37.344Z,3964
2017-03-21T08:29:18.166Z,4024
2017-03-21T08:29:58.819Z,4884
2017-03-21T08:30:39.460Z,5412
2017-03-21T08:31:20.115Z,5908
2017-03-21T08:32:00.773Z,5284
2017-03-21T08:32:41.422Z,5396
2017-03-21T08:33:22.073Z,5416
2017-03-21T08:34:02.731Z,5300
2017-03-21T08:34:43.310Z,5248
2017-03-21T08:35:23.887Z,5896
2017-03-21T08:36:04.518Z,5436
2017-03-21T08:36:45.138Z,6196
2017-03-21T08:37:25.714Z,6044
2017-03-21T08:38:06.296Z,5220
2017-03-21T08:38:46.897Z,5880
2017-03-21T08:39:27.584Z,6032
2017-03-21T08:40:08.187Z,5656
2017-03-21T08:40:48.855Z,5364
2017-03-21T08:41:29.501Z,6252
2017-03-21T08:42:12.212Z,6088
2017-03-21T08:42:52.850Z,6172
2017-03-21T08:43:33.505Z,5924
2017-03-21T08:44:14.092Z,5620
2017-03-21T08:44:55.732Z,5436
2017-03-21T08:45:36.421Z,5560
2017-03-21T08:46:16.948Z,5548
2017-03-21T08:46:57.610Z,5728
2017-03-21T08:47:38.248Z,6132
2017-03-21T08:48:18.828Z,6736
2017-03-21T08:48:59.462Z,7832
2017-03-21T08:49:40.095Z,8036
2017-03-21T08:50:20.733Z,7744
2017-03-21T08:51:02.391Z,7692
2017-03-21T08:51:45.067Z,7320
2017-03-21T08:52:25.670Z,7248
2017-03-21T08:53:06.246Z,6904
2017-03-21T08:53:46.830Z,7816
2017-03-21T08:54:27.461Z,7468
2017-03-21T08:55:08.077Z,7268
2017-03-21T08:55:48.690Z,7312
2017-03-21T08:56:29.408Z,7756
2017-03-21T08:57:10.059Z,7868
2017-03-21T08:57:50.696Z,8276
2017-03-21T08:58:33.496Z,8872
2017-03-21T08:59:14.107Z,8648
2017-03-21T08:59:54.707Z,8308
2017-03-21T09:00:35.352Z,8652
2017-03-21T09:01:15.914Z,8900
2017-03-21T09:01:56.572Z,8332
2017-03-21T09:02:37.220Z,8036
2017-03-21T09:03:17.857Z,7232
2017-03-21T09:03:58.448Z,6656
2017-03-21T09:04:39.113Z,6648
2017-03-21T09:05:19.779Z,7232
2017-03-21T09:06:00.443Z,7604
2017-03-21T09:06:41.078Z,7436
2017-03-21T09:07:21.756Z,7152
2017-03-21T09:08:02.388Z,7172
2017-03-21T09:08:43.031Z,7116
2017-03-21T09:09:23.684Z,7316
2017-03-21T09:10:04.329Z,7220
2017-03-21T09:10:45.035Z,6912
2017-03-21T09:11:25.698Z,6632
2017-03-21T09:12:06.306Z,6340
2017-03-21T09:12:47.003Z,5956
2017-03-21T09:13:27.679Z,5400
2017-03-21T09:14:08.368Z,4636
2017-03-21T09:14:48.960Z,3828
2017-03-21T09:15:29.629Z,3136
2017-03-21T09:16:10.221Z,2736
2017-03-21T09:16:50.918Z,2612
2017-03-21T09:17:31.628Z,2616
2017-03-21T09:18:12.225Z,2724
2017-03-21T09:18:52.807Z,2728
2017-03-21T09:19:33.509Z,2692
2017-03-21T09:20:14.167Z,2752
2017-03-21T09:20:54.871Z,2828
2017-03-21T09:21:35.506Z,2888
2017-03-21T09:22:16.138Z,2872
2017-03-21T09:22:56.797Z,2792
2017-03-21T09:23:37.468Z,2732
2017-03-21T09:24:24.088Z,2484
2017-03-21T09:36:51.388Z,3276
2017-03-21T09:37:31.939Z,3380
2017-03-21T09:38:12.622Z,3556
2017-03-21T09:38:53.211Z,3800
2017-03-21T09:39:33.856Z,3848
2017-03-21T09:40:14.507Z,3680
2017-03-21T09:40:55.162Z,3464
2017-03-21T09:41:35.820Z,3100
2017-03-21T09:42:16.468Z,2732
2017-03-21T09:42:57.123Z,2452
2017-03-21T09:43:37.788Z,2380
2017-03-21T09:44:18.434Z,2428
2017-03-21T09:44:59.080Z,2488
2017-03-21T09:45:39.738Z,2448
2017-03-21T09:46:20.390Z,2252
2017-03-21T09:47:01.040Z,2348
2017-03-21T09:47:41.705Z,2668
2017-03-21T09:48:22.383Z,2868
2017-03-21T09:49:02.995Z,2852
2017-03-21T09:49:43.650Z,2712
2017-03-21T09:50:24.303Z,2428
2017-03-21T09:51:04.973Z,2028
2017-03-21T09:51:45.637Z,1904
2017-03-21T09:52:26.269Z,1992
2017-03-21T09:53:06.919Z,1964
